Terminal Aerodrome Forecast
Issued by NWS

Home | Current Version | Previous Version | Text Only | Print | Product List | Glossary On
Versions: 1 2 3 4 5 6 7 8 9 10 11 12 13
450
FTUS44 KTSA 080251 AAA
TAFBVO
TAF AMD
KBVO 080251Z 0803/0824 28004KT P6SM SKC
     FM080600 30006G16KT P6SM SKC
     FM081500 33012G24KT P6SM SCT050=

USA.gov is the U.S. government's official web portal to all federal, state and local government web resources and services.